RJNO(METAR)
12/04 16:00
RJNO 040700Z 29010KT 9999 FEW025 BKNXXX 09/01 Q1024 RMK A3024=
戻る
トップページへ戻る
IMOC Co,.Ltd.